createdAt,value
2019-05-17T00:00:49.566Z,10.48
2019-05-17T00:03:37.678Z,14.00
2019-05-17T00:06:27.581Z,8.55
2019-05-17T00:09:17.596Z,7.08
2019-05-17T00:12:07.514Z,14.73
2019-05-17T00:14:56.287Z,8.53
2019-05-17T00:17:46.662Z,9.20
2019-05-17T00:20:34.026Z,11.57
2019-05-17T00:23:22.339Z,11.08
2019-05-17T00:26:10.660Z,9.00
2019-05-17T00:28:58.790Z,11.90
2019-05-17T00:31:48.975Z,8.23
2019-05-17T00:34:37.742Z,9.60
2019-05-17T00:37:26.516Z,11.38
2019-05-17T00:40:16.627Z,7.90
2019-05-17T00:43:06.436Z,8.18
2019-05-17T00:45:53.809Z,8.83
2019-05-17T00:48:42.238Z,7.05
2019-05-17T00:51:30.627Z,7.75
2019-05-17T00:54:19.265Z,12.33
2019-05-17T00:57:08.041Z,9.70
2019-05-17T00:59:56.576Z,7.12
2019-05-17T01:02:46.591Z,9.03
2019-05-17T01:05:34.158Z,6.58
2019-05-17T01:08:23.547Z,7.80
2019-05-17T01:11:11.451Z,8.28
2019-05-17T01:13:59.835Z,7.00
2019-05-17T01:16:48.031Z,6.90
2019-05-17T01:19:36.594Z,7.37
2019-05-17T01:22:26.253Z,9.75
2019-05-17T01:25:17.186Z,12.50
2019-05-17T01:28:07.618Z,8.33
2019-05-17T01:30:56.977Z,7.95
2019-05-17T01:33:47.057Z,10.20
2019-05-17T01:36:37.040Z,7.40
2019-05-17T01:39:26.727Z,6.35
2019-05-17T01:42:13.987Z,6.35
2019-05-17T01:45:01.557Z,12.00
2019-05-17T01:47:49.525Z,8.83
2019-05-17T01:50:37.736Z,9.60
2019-05-17T01:53:27.013Z,7.65
2019-05-17T01:56:16.919Z,8.75
2019-05-17T01:59:06.789Z,9.95
2019-05-17T02:01:56.576Z,11.05
2019-05-17T02:04:46.639Z,8.13
2019-05-17T02:07:33.709Z,8.70
2019-05-17T02:10:22.553Z,10.10
2019-05-17T02:13:10.485Z,9.05
2019-05-17T02:15:58.884Z,9.70
2019-05-17T02:18:46.680Z,8.38
2019-05-17T02:21:36.668Z,11.05
2019-05-17T02:24:23.882Z,9.93
2019-05-17T02:27:12.600Z,8.33
2019-05-17T02:30:02.486Z,10.82
2019-05-17T02:32:53.867Z,12.00
2019-05-17T02:35:42.915Z,10.03
2019-05-17T02:38:32.856Z,8.48
2019-05-17T02:41:22.505Z,12.80
2019-05-17T02:44:08.991Z,12.07
2019-05-17T02:46:56.773Z,10.68
2019-05-17T02:49:45.198Z,15.50
2019-05-17T02:52:33.240Z,11.38
2019-05-17T02:55:23.427Z,8.23
2019-05-17T02:58:12.813Z,8.88
2019-05-17T03:01:03.303Z,10.03
2019-05-17T03:03:52.921Z,10.48
2019-05-17T03:06:39.771Z,11.48
2019-05-17T03:09:28.293Z,10.03
2019-05-17T03:12:16.672Z,12.35
2019-05-17T03:15:05.499Z,12.28
2019-05-17T03:17:53.890Z,9.73
2019-05-17T03:20:43.368Z,11.00
2019-05-17T03:23:32.822Z,11.18
2019-05-17T03:26:23.100Z,10.30
2019-05-17T03:29:13.611Z,11.40
2019-05-17T03:32:08.083Z,12.50
2019-05-17T03:34:56.017Z,12.78
2019-05-17T03:37:43.694Z,14.35
2019-05-17T03:41:01.082Z,14.85
2019-05-17T03:43:22.625Z,17.00
2019-05-17T03:46:13.605Z,22.25
2019-05-17T03:49:03.467Z,16.02
2019-05-17T03:51:52.943Z,15.75
2019-05-17T03:54:39.256Z,17.20
2019-05-17T03:57:27.018Z,20.45
2019-05-17T04:00:15.709Z,15.30
2019-05-17T04:03:04.090Z,14.55
2019-05-17T04:05:52.890Z,15.90
2019-05-17T04:08:42.499Z,18.23
2019-05-17T04:11:35.614Z,18.92
2019-05-17T04:14:22.438Z,16.57
2019-05-17T04:17:12.852Z,17.42
2019-05-17T04:20:03.375Z,19.10
2019-05-17T04:22:52.717Z,21.93
2019-05-17T04:25:43.306Z,20.32
2019-05-17T04:28:33.252Z,20.48
2019-05-17T04:31:22.528Z,23.12
2019-05-17T04:34:09.259Z,23.95
2019-05-17T04:36:57.857Z,22.35
2019-05-17T04:39:46.350Z,26.45
2019-05-17T04:42:34.834Z,22.80
2019-05-17T04:45:23.459Z,20.75
2019-05-17T04:48:13.227Z,21.60
2019-05-17T04:51:02.805Z,29.50
2019-05-17T04:53:53.020Z,26.75
2019-05-17T04:56:42.609Z,23.25
2019-05-17T04:59:33.829Z,27.82
2019-05-17T05:02:19.846Z,28.40
2019-05-17T05:05:08.379Z,23.42
2019-05-17T05:07:57.167Z,22.73
2019-05-17T05:10:45.408Z,23.32
2019-05-17T05:13:34.140Z,30.32
2019-05-17T05:16:22.699Z,27.22
2019-05-17T05:19:12.904Z,23.22
2019-05-17T05:22:04.618Z,26.60
2019-05-17T05:24:52.357Z,24.07
2019-05-17T05:27:39.511Z,21.40
2019-05-17T05:30:27.770Z,19.82
2019-05-17T05:33:16.078Z,25.37
2019-05-17T05:36:05.022Z,19.50
2019-05-17T05:38:53.614Z,20.40
2019-05-17T05:41:42.731Z,23.30
2019-05-17T05:44:32.042Z,20.55
2019-05-17T05:47:22.064Z,21.33
2019-05-17T05:50:12.178Z,21.07
2019-05-17T05:53:01.970Z,27.98
2019-05-17T05:55:51.637Z,21.07
2019-05-17T05:58:39.256Z,21.02
2019-05-17T06:01:27.284Z,20.92
2019-05-17T06:04:15.475Z,22.77
2019-05-17T06:07:05.405Z,22.62
2019-05-17T06:09:53.430Z,23.67
2019-05-17T06:12:43.501Z,26.20
2019-05-17T06:15:32.069Z,26.48
2019-05-17T06:18:22.504Z,25.62
2019-05-17T06:21:12.205Z,26.45
2019-05-17T06:23:59.767Z,25.45
2019-05-17T06:26:47.640Z,25.97
2019-05-17T06:29:35.955Z,24.90
2019-05-17T06:32:24.070Z,25.88
2019-05-17T06:35:13.133Z,24.23
2019-05-17T06:38:02.074Z,21.17
2019-05-17T06:40:52.374Z,24.30
2019-05-17T06:43:41.619Z,25.12
2019-05-17T06:46:32.310Z,28.55
2019-05-17T06:49:19.655Z,23.87
2019-05-17T06:52:07.565Z,22.65
2019-05-17T06:54:56.083Z,21.20
2019-05-17T06:57:44.629Z,22.58
2019-05-17T07:00:32.834Z,25.80
2019-05-17T07:03:21.202Z,24.95
2019-05-17T07:06:11.408Z,28.12
2019-05-17T07:09:00.943Z,30.27
2019-05-17T07:11:48.646Z,42.08
2019-05-17T07:14:36.553Z,30.80
2019-05-17T07:17:24.329Z,24.20
2019-05-17T07:20:12.929Z,25.70
2019-05-17T07:23:00.976Z,23.67
2019-05-17T07:25:50.387Z,28.57
2019-05-17T07:28:40.482Z,31.23
2019-05-17T07:31:29.803Z,26.73
2019-05-17T07:34:19.860Z,30.62
2019-05-17T07:37:07.252Z,35.10
2019-05-17T07:40:01.122Z,33.28
2019-05-17T07:42:44.365Z,32.25
2019-05-17T07:45:32.899Z,27.58
2019-05-17T07:48:21.631Z,34.65
2019-05-17T07:51:10.146Z,29.82
2019-05-17T07:53:59.704Z,33.10
2019-05-17T07:56:50.411Z,27.30
2019-05-17T07:59:39.751Z,33.33
2019-05-17T08:02:26.928Z,26.73
2019-05-17T08:05:15.740Z,40.28
2019-05-17T08:08:03.947Z,29.27
2019-05-17T08:10:51.789Z,29.98
2019-05-17T08:13:40.559Z,29.85
2019-05-17T08:16:30.375Z,32.17
2019-05-17T08:19:20.448Z,29.92
2019-05-17T08:22:09.736Z,33.23
2019-05-17T08:24:59.839Z,37.65
2019-05-17T08:27:47.042Z,36.48
2019-05-17T08:30:35.069Z,38.17
2019-05-17T08:33:23.742Z,40.03
2019-05-17T08:36:11.635Z,41.13
2019-05-17T08:38:59.949Z,39.90
2019-05-17T08:41:49.724Z,40.17
2019-05-17T08:44:39.274Z,40.67
2019-05-17T08:47:26.789Z,42.00
2019-05-17T08:50:15.246Z,40.38
2019-05-17T08:53:03.509Z,43.68
2019-05-17T08:55:51.650Z,43.25
2019-05-17T08:58:40.489Z,38.17
2019-05-17T09:01:30.203Z,43.42
2019-05-17T09:04:20.040Z,38.30
2019-05-17T09:07:06.709Z,49.93
2019-05-17T09:09:55.297Z,41.13
2019-05-17T09:12:43.539Z,45.15
2019-05-17T09:15:31.400Z,42.30
2019-05-17T09:18:20.664Z,43.35
2019-05-17T09:21:09.757Z,44.03
2019-05-17T09:23:59.706Z,44.73
2019-05-17T09:26:55.668Z,44.55
2019-05-17T09:29:44.134Z,44.63
2019-05-17T09:32:32.248Z,39.60
2019-05-17T09:35:20.910Z,43.10
2019-05-17T09:38:10.210Z,41.77
2019-05-17T09:40:59.976Z,48.23
2019-05-17T09:43:49.661Z,45.08
2019-05-17T09:46:39.508Z,45.35
2019-05-17T09:49:27.084Z,52.70
2019-05-17T09:52:14.916Z,48.05
2019-05-17T09:55:03.474Z,49.03
2019-05-17T09:57:51.343Z,47.13
2019-05-17T10:00:39.189Z,54.93
2019-05-17T10:03:27.599Z,45.70
2019-05-17T10:06:15.875Z,53.23
2019-05-17T10:09:06.220Z,48.00
2019-05-17T10:11:53.975Z,53.58
2019-05-17T10:14:43.038Z,47.00
2019-05-17T10:17:33.044Z,49.15
2019-05-17T10:20:20.678Z,49.50
2019-05-17T10:23:10.566Z,49.80
2019-05-17T10:26:00.911Z,46.23
2019-05-17T10:28:48.765Z,44.03
2019-05-17T10:31:39.699Z,43.33
2019-05-17T10:34:29.342Z,37.20
2019-05-17T10:37:16.835Z,40.63
2019-05-17T10:40:10.390Z,39.48
2019-05-17T10:43:00.766Z,36.75
2019-05-17T10:45:48.837Z,38.30
2019-05-17T10:48:37.076Z,35.08
2019-05-17T10:51:25.489Z,35.80
2019-05-17T10:54:14.080Z,32.28
2019-05-17T10:57:02.270Z,32.17
2019-05-17T10:59:51.443Z,24.43
2019-05-17T11:02:39.462Z,25.55
2019-05-17T11:05:30.614Z,26.80
2019-05-17T11:08:21.831Z,25.97
2019-05-17T11:11:10.298Z,30.43
2019-05-17T11:13:58.494Z,29.12
2019-05-17T11:16:46.438Z,26.82
2019-05-17T11:19:34.803Z,31.82
2019-05-17T11:22:23.314Z,30.50
2019-05-17T11:25:12.473Z,30.68
2019-05-17T11:28:00.537Z,28.25
2019-05-17T11:30:49.017Z,32.15
2019-05-17T11:33:36.933Z,26.73
2019-05-17T11:36:25.060Z,29.67
2019-05-17T11:39:13.489Z,32.83
2019-05-17T11:42:01.178Z,31.80
2019-05-17T11:44:49.286Z,31.85
2019-05-17T11:47:37.721Z,34.30
2019-05-17T11:50:25.621Z,32.28
2019-05-17T11:53:13.917Z,34.63
2019-05-17T11:56:01.647Z,33.23
2019-05-17T11:58:49.582Z,37.60
2019-05-17T12:01:37.970Z,36.68
2019-05-17T12:04:26.207Z,39.78
2019-05-17T12:07:14.321Z,43.68
2019-05-17T12:10:03.424Z,44.25
2019-05-17T12:12:51.710Z,45.30
2019-05-17T12:15:45.147Z,47.53
2019-05-17T12:18:29.207Z,42.98
2019-05-17T12:21:17.635Z,44.80
2019-05-17T12:24:06.012Z,41.85
2019-05-17T12:26:54.297Z,45.43
2019-05-17T12:29:43.007Z,43.73
2019-05-17T12:32:32.032Z,40.98
2019-05-17T12:35:20.190Z,38.98
2019-05-17T12:38:08.383Z,43.28
2019-05-17T12:40:56.636Z,44.48
2019-05-17T12:44:05.571Z,42.88
2019-05-17T12:46:53.848Z,41.20
2019-05-17T12:49:42.100Z,42.75
2019-05-17T12:52:30.343Z,41.23
2019-05-17T12:55:18.733Z,41.23
2019-05-17T12:58:06.471Z,36.70
2019-05-17T13:00:54.955Z,36.85
2019-05-17T13:03:43.507Z,38.65
2019-05-17T13:06:31.934Z,40.35
2019-05-17T13:09:19.707Z,39.40
2019-05-17T13:12:07.212Z,41.95
2019-05-17T13:14:56.529Z,44.25
2019-05-17T13:17:44.903Z,40.83
2019-05-17T13:20:32.853Z,41.05
2019-05-17T13:23:20.779Z,38.92
2019-05-17T13:26:09.003Z,42.08
2019-05-17T13:28:57.251Z,40.25
2019-05-17T13:31:46.262Z,38.20
2019-05-17T13:34:34.160Z,37.23
2019-05-17T13:37:24.344Z,35.05
2019-05-17T13:40:12.995Z,34.18
2019-05-17T13:43:01.011Z,32.10
2019-05-17T13:45:48.751Z,34.65
2019-05-17T13:48:37.128Z,37.55
2019-05-17T13:51:25.476Z,31.65
2019-05-17T13:54:14.254Z,24.10
2019-05-17T13:57:03.014Z,26.52
2019-05-17T13:59:51.464Z,33.48
2019-05-17T14:02:39.776Z,27.80
2019-05-17T14:05:27.611Z,28.38
2019-05-17T14:08:16.776Z,28.67
2019-05-17T14:11:05.087Z,27.98
2019-05-17T14:13:53.287Z,27.07
2019-05-17T14:16:43.475Z,33.25
2019-05-17T14:19:31.693Z,27.10
2019-05-17T14:22:19.667Z,23.83
2019-05-17T14:25:08.549Z,25.68
2019-05-17T14:27:57.498Z,27.55
2019-05-17T14:30:45.492Z,26.62
2019-05-17T14:33:33.406Z,26.10
2019-05-17T14:36:22.086Z,27.05
2019-05-17T14:39:10.183Z,28.20
2019-05-17T14:41:58.589Z,25.43
2019-05-17T14:44:47.080Z,27.10
2019-05-17T14:47:35.564Z,27.58
2019-05-17T14:50:24.048Z,29.18
2019-05-17T14:53:12.553Z,28.20
2019-05-17T14:56:01.122Z,26.48
2019-05-17T14:58:49.421Z,26.62
2019-05-17T15:01:37.842Z,26.00
2019-05-17T15:04:26.269Z,26.07
2019-05-17T15:07:14.726Z,30.05
2019-05-17T15:10:02.978Z,26.15
2019-05-17T15:12:50.797Z,26.00
2019-05-17T15:15:38.608Z,26.93
2019-05-17T15:18:26.660Z,24.60
2019-05-17T15:21:14.933Z,25.43
2019-05-17T15:24:03.167Z,24.25
2019-05-17T15:27:04.801Z,23.05
2019-05-17T15:29:40.484Z,25.85
2019-05-17T15:32:28.301Z,25.00
2019-05-17T15:35:16.427Z,27.30
2019-05-17T15:38:04.877Z,25.17
2019-05-17T15:40:52.595Z,24.70
2019-05-17T15:43:40.219Z,22.70
2019-05-17T15:46:28.711Z,21.60
2019-05-17T15:49:16.602Z,21.95
2019-05-17T15:52:04.988Z,23.15
2019-05-17T15:54:53.192Z,22.35
2019-05-17T15:57:41.297Z,18.00
2019-05-17T16:00:30.008Z,17.30
2019-05-17T16:03:18.513Z,18.60
2019-05-17T16:06:06.549Z,17.87
2019-05-17T16:08:54.847Z,19.50
2019-05-17T16:11:42.924Z,19.23
2019-05-17T16:14:31.107Z,16.30
2019-05-17T16:17:19.779Z,16.00
2019-05-17T16:20:07.944Z,15.25
2019-05-17T16:22:56.363Z,14.93
2019-05-17T16:25:45.126Z,15.55
2019-05-17T16:28:33.251Z,16.15
2019-05-17T16:31:21.474Z,15.03
2019-05-17T16:34:09.915Z,13.58
2019-05-17T16:36:58.315Z,17.62
2019-05-17T16:39:46.801Z,16.30
2019-05-17T16:42:34.928Z,15.68
2019-05-17T16:45:23.390Z,14.10
2019-05-17T16:48:11.624Z,13.80
2019-05-17T16:51:00.407Z,15.15
2019-05-17T16:53:48.393Z,13.93
2019-05-17T16:56:43.404Z,15.13
2019-05-17T16:59:31.650Z,17.32
2019-05-17T17:02:19.490Z,17.73
2019-05-17T17:05:08.117Z,16.75
2019-05-17T17:07:56.395Z,18.05
2019-05-17T17:10:44.139Z,19.37
2019-05-17T17:13:33.519Z,19.27
2019-05-17T17:16:21.882Z,18.32
2019-05-17T17:19:10.494Z,17.07
2019-05-17T17:21:58.892Z,20.50
2019-05-17T17:24:46.635Z,19.82
2019-05-17T17:27:35.231Z,19.40
2019-05-17T17:30:23.954Z,22.55
2019-05-17T17:33:12.190Z,21.25
2019-05-17T17:36:00.417Z,19.35
2019-05-17T17:38:48.163Z,19.73
2019-05-17T17:41:36.696Z,23.00
2019-05-17T17:44:24.902Z,18.10
2019-05-17T17:47:13.175Z,23.10
2019-05-17T17:50:01.262Z,22.17
2019-05-17T17:52:50.816Z,26.48
2019-05-17T17:55:38.418Z,19.20
2019-05-17T17:58:27.706Z,18.60
2019-05-17T18:01:15.911Z,18.98
2019-05-17T18:04:04.091Z,19.65
2019-05-17T18:06:52.773Z,18.85
2019-05-17T18:09:41.310Z,20.62
2019-05-17T18:12:29.491Z,21.60
2019-05-17T18:15:20.807Z,22.82
2019-05-17T18:18:08.502Z,21.77
2019-05-17T18:20:56.830Z,22.73
2019-05-17T18:23:45.411Z,24.10
2019-05-17T18:26:33.291Z,22.20
2019-05-17T18:29:21.360Z,22.82
2019-05-17T18:32:09.472Z,19.57
2019-05-17T18:34:57.722Z,19.57
2019-05-17T18:37:45.755Z,18.02
2019-05-17T18:40:34.027Z,20.80
2019-05-17T18:43:22.536Z,16.42
2019-05-17T18:46:11.138Z,21.17
2019-05-17T18:48:59.043Z,19.65
2019-05-17T18:51:47.173Z,21.40
2019-05-17T18:54:35.543Z,24.07
2019-05-17T18:57:23.627Z,20.23
2019-05-17T19:00:12.838Z,23.30
2019-05-17T19:03:01.584Z,18.52
2019-05-17T19:05:49.960Z,16.95
2019-05-17T19:08:37.404Z,19.30
2019-05-17T19:11:25.391Z,24.18
2019-05-17T19:14:13.299Z,16.32
2019-05-17T19:17:01.244Z,19.52
2019-05-17T19:20:09.182Z,18.10
2019-05-17T19:22:57.787Z,19.20
2019-05-17T19:25:45.983Z,19.40
2019-05-17T19:28:54.377Z,21.80
2019-05-17T19:31:42.239Z,18.52
2019-05-17T19:34:30.098Z,19.70
2019-05-17T19:37:18.460Z,15.68
2019-05-17T19:40:07.928Z,19.70
2019-05-17T19:42:56.514Z,17.73
2019-05-17T19:45:44.921Z,20.80
2019-05-17T19:48:35.011Z,16.97
2019-05-17T19:51:23.600Z,15.93
2019-05-17T19:54:17.145Z,20.25
2019-05-17T19:57:04.814Z,18.87
2019-05-17T19:59:52.504Z,19.20
2019-05-17T20:02:40.910Z,16.90
2019-05-17T20:05:29.262Z,17.82
2019-05-17T20:08:17.773Z,16.70
2019-05-17T20:11:05.963Z,21.35
2019-05-17T20:13:54.011Z,21.82
2019-05-17T20:16:41.927Z,20.68
2019-05-17T20:19:30.160Z,25.60
2019-05-17T20:22:18.291Z,23.83
2019-05-17T20:25:07.785Z,23.25
2019-05-17T20:27:56.454Z,21.52
2019-05-17T20:30:45.708Z,20.27
2019-05-17T20:33:33.538Z,18.52
2019-05-17T20:36:21.087Z,23.03
2019-05-17T20:39:10.400Z,21.23
2019-05-17T20:41:58.902Z,27.70
2019-05-17T20:44:46.402Z,24.18
2019-05-17T20:47:34.467Z,24.25
2019-05-17T20:50:22.984Z,28.62
2019-05-17T20:53:18.867Z,28.38
2019-05-17T20:56:00.091Z,26.10
2019-05-17T20:58:48.191Z,25.77
2019-05-17T21:01:39.694Z,28.32
2019-05-17T21:04:27.989Z,28.70
2019-05-17T21:07:16.767Z,27.95
2019-05-17T21:10:08.531Z,25.97
2019-05-17T21:12:56.327Z,24.23
2019-05-17T21:15:47.733Z,18.87
2019-05-17T21:18:34.449Z,24.37
2019-05-17T21:21:22.681Z,31.15
2019-05-17T21:24:11.590Z,30.95
2019-05-17T21:27:00.164Z,27.10
2019-05-17T21:29:49.067Z,29.82
2019-05-17T21:32:36.851Z,31.23
2019-05-17T21:35:25.354Z,36.28
2019-05-17T21:38:14.472Z,30.92
2019-05-17T21:41:02.147Z,35.85
2019-05-17T21:43:50.225Z,35.15
2019-05-17T21:46:37.958Z,33.23
2019-05-17T21:49:25.929Z,35.33
2019-05-17T21:52:14.207Z,32.38
2019-05-17T21:55:02.279Z,37.85
2019-05-17T21:57:50.373Z,36.28
2019-05-17T22:00:54.508Z,39.98
2019-05-17T22:03:43.145Z,42.67
2019-05-17T22:06:30.950Z,35.25
2019-05-17T22:09:19.115Z,33.88
2019-05-17T22:12:09.329Z,33.42
2019-05-17T22:14:57.179Z,31.80
2019-05-17T22:17:45.527Z,44.45
2019-05-17T22:20:33.368Z,41.88
2019-05-17T22:23:21.888Z,35.68
2019-05-17T22:26:10.202Z,35.20
2019-05-17T22:28:57.841Z,33.18
2019-05-17T22:31:46.149Z,33.88
2019-05-17T22:34:34.229Z,31.77
2019-05-17T22:37:23.065Z,35.60
2019-05-17T22:40:12.270Z,41.28
2019-05-17T22:43:00.313Z,40.52
2019-05-17T22:45:48.343Z,41.92
2019-05-17T22:48:36.432Z,39.18
2019-05-17T22:51:24.284Z,37.53
2019-05-17T22:54:12.035Z,39.40
2019-05-17T22:57:00.312Z,35.25
2019-05-17T22:59:48.056Z,50.88
2019-05-17T23:02:36.234Z,49.20
2019-05-17T23:05:26.155Z,47.98
2019-05-17T23:08:14.025Z,54.13
2019-05-17T23:11:02.053Z,45.45
2019-05-17T23:13:49.625Z,48.38
2019-05-17T23:16:50.478Z,40.98
2019-05-17T23:19:26.986Z,52.58
2019-05-17T23:22:15.428Z,52.95
2019-05-17T23:25:04.372Z,49.63
2019-05-17T23:27:53.030Z,48.45
2019-05-17T23:30:41.029Z,63.68
2019-05-17T23:33:28.890Z,53.90
2019-05-17T23:36:16.938Z,57.58
2019-05-17T23:39:07.064Z,58.83
2019-05-17T23:41:55.577Z,63.00
2019-05-17T23:44:43.824Z,52.50
2019-05-17T23:47:31.546Z,45.90
2019-05-17T23:50:19.840Z,40.63
2019-05-17T23:53:07.840Z,46.53
2019-05-17T23:55:56.037Z,40.23
2019-05-17T23:58:43.931Z,50.40
